• Join FlightAware (Why Join?)
  • Login
  • US Flag 
05:31PM EST


 

Airport Tracker/Info


-or-


 

Live Flight TrackerFlight Track Log ✈ TAM8005 ✈ 30-Jul-2013 ✈ SABE / AEP - SBGR / GRU

Flight Track Log - Related Links

Times and Time Zones

All times are in EDT time to prevent confusion due to time zone crossing. See the TAM8005 flight status page for this flight to view local times or setup timezone preferences in your user account.

Time Position Orientation Groundspeed Altitude Reporting Facility
EDT Latitude Longitude Course Direction KTS MPH feet Rate Location/Type
02:42PM -34.5690 -58.3990 124° Southeast 160 184 700  Level FlightAware
02:43PM -34.5710 -58.3930 112° Southeast 159 183 1,100 2,520 Climbing FlightAware
02:43PM -34.5720 -58.3870 101° East 157 181 1,300 960 Climbing FlightAware
02:43PM -34.5630 -58.3690 59° Northeast 181 208 1,600 960 Climbing FlightAware
02:43PM -34.5540 -58.3620 33° Northeast 197 227 1,900 1,320 Climbing FlightAware
02:44PM -34.5340 -58.3460 33° Northeast 232 267 2,400 1,440 Climbing FlightAware
02:44PM -34.5190 -58.3340 33° Northeast 252 290 2,900 2,580 Climbing FlightAware
02:44PM -34.4960 -58.3160 33° Northeast 262 302 4,100 3,000 Climbing FlightAware
02:45PM -34.4720 -58.2980 32° Northeast 259 298 5,100 2,820 Climbing FlightAware
02:45PM -34.4550 -58.2860 30° Northeast 266 306 5,900 3,000 Climbing FlightAware
02:45PM -34.4280 -58.2670 30° Northeast 270 311 7,200 2,820 Climbing FlightAware
02:45PM -34.4210 -58.2660 North 270 311 7,500 3,000 Climbing FlightAware
02:46PM -34.3870 -58.2700 354° North 275 316 8,800 3,000 Climbing FlightAware
02:46PM -34.3570 -58.2760 351° North 283 326 9,900 2,280 Climbing FlightAware
02:47PM -34.3210 -58.2820 352° North 305 351 10,700 1,620 Climbing FlightAware
02:47PM -34.2910 -58.2720 15° North 328 377 11,200 1,800 Climbing FlightAware
02:48PM -34.2410 -58.2470 22° Northeast 343 395 12,400 1,980 Climbing FlightAware
02:48PM -34.1840 -58.2180 23° Northeast 359 413 13,600 2,040 Climbing FlightAware
02:49PM -34.1410 -58.1810 35° Northeast 368 423 14,800 2,100 Climbing FlightAware
02:50PM -34.0790 -58.1270 36° Northeast 375 432 16,300 1,920 Climbing FlightAware
02:50PM -34.0330 -58.0870 36° Northeast 385 443 17,300 1,800 Climbing FlightAware
02:51PM -33.9800 -58.0410 36° Northeast 393 452 18,400 1,860 Climbing FlightAware
02:51PM -33.9240 -57.9920 36° Northeast 401 461 19,600 1,800 Climbing FlightAware
02:52PM -33.8730 -57.9470 36° Northeast 408 470 20,600 1,680 Climbing FlightAware
02:52PM -33.8160 -57.8980 36° Northeast 418 481 21,600 1,500 Climbing FlightAware
02:53PM -33.7670 -57.8550 36° Northeast 427 491 22,300 1,380 Climbing FlightAware
02:54PM -33.7070 -57.8020 36° Northeast 433 498 23,200 1,440 Climbing FlightAware
02:54PM -33.6460 -57.7500 35° Northeast 439 505 24,100 1,440 Climbing FlightAware
02:55PM -33.5910 -57.7020 36° Northeast 446 513 24,900 1,440 Climbing FlightAware
02:55PM -33.5370 -57.6550 36° Northeast 449 517 25,700 1,320 Climbing FlightAware
02:56PM -33.4730 -57.6000 36° Northeast 455 524 26,500 1,200 Climbing FlightAware
02:56PM -33.4140 -57.5570 31° Northeast 458 527 27,100 1,080 Climbing FlightAware
02:57PM -33.3460 -57.5100 30° Northeast 463 533 27,800 1,140 Climbing FlightAware
02:58PM -33.2780 -57.4620 31° Northeast 467 537 28,500 1,140 Climbing FlightAware
02:58PM -33.2180 -57.4210 30° Northeast 471 542 29,100 960 Climbing FlightAware
02:59PM -33.1490 -57.3740 30° Northeast 478 550 29,600 840 Climbing FlightAware
02:59PM -33.0870 -57.3310 30° Northeast 485 558 30,100 720 Climbing FlightAware
03:00PM -33.0180 -57.2710 36° Northeast 485 558 30,500 300 Climbing FlightAware
03:01PM -32.9620 -57.2230 36° Northeast 485 558 30,500 1,560 Level FlightAware
03:01PM -32.8860 -57.1550 37° Northeast 486 559 32,400 1,680 Climbing FlightAware
03:02PM -32.8170 -57.0940 37° Northeast 485 558 32,700 960 Climbing FlightAware
03:03PM -32.7450 -57.0310 36° Northeast 487 560 33,700 900 Climbing FlightAware
03:03PM -32.6710 -56.9670 36° Northeast 487 560 34,000 180 Climbing FlightAware
03:04PM -32.6150 -56.9180 36° Northeast 487 560 34,000  Level FlightAware
03:05PM -32.5590 -56.8700 36° Northeast 487 560 34,000  Level FlightAware
03:05PM -32.5030 -56.8220 36° Northeast 487 560 34,000  Level FlightAware
03:06PM -32.4470 -56.7740 36° Northeast 487 560 34,000  Level FlightAware
03:06PM -32.3920 -56.7260 36° Northeast 487 560 34,000  Level FlightAware
03:07PM -32.3360 -56.6780 36° Northeast 487 560 34,000  Level FlightAware
03:08PM -32.2790 -56.6290 36° Northeast 487 560 34,000  Level FlightAware
03:08PM -32.2200 -56.5780 36° Northeast 487 560 34,000 1,920 Level FlightAware
03:09PM -32.0320 -56.4130 37° Northeast 490 564 37,000 1,800 Climbing FlightAware
03:10PM -31.9640 -56.3550 36° Northeast 490 564 37,000  Level FlightAware
03:10PM -31.9070 -56.3060 36° Northeast 490 564 37,000  Level FlightAware
03:11PM -31.8630 -56.2690 36° Northeast 490 564 37,000  Level FlightAware
03:12PM -31.7880 -56.2050 36° Northeast 490 564 37,000  Level FlightAware
03:12PM -31.7320 -56.1570 36° Northeast 490 564 37,000  Level FlightAware
03:13PM -31.6760 -56.1090 36° Northeast 490 564 37,000  Level FlightAware
03:14PM -31.6200 -56.0610 36° Northeast 490 564 37,000  Level FlightAware
03:14PM -31.5640 -56.0130 36° Northeast 490 564 37,000  Level FlightAware
03:15PM -31.5060 -55.9640 36° Northeast 490 564 37,000  Level FlightAware
03:15PM -31.4500 -55.9160 36° Northeast 490 564 37,000  Level FlightAware
03:16PM -31.3920 -55.8670 36° Northeast 490 564 37,000  Level FlightAware
03:17PM -31.3360 -55.8190 36° Northeast 490 564 37,000  Level FlightAware
03:17PM -31.2780 -55.7700 36° Northeast 490 564 37,000  Level FlightAware
03:18PM -31.2220 -55.7220 36° Northeast 490 564 37,000  Level FlightAware
03:18PM -31.1660 -55.6750 36° Northeast 490 564 37,000  Level FlightAware
03:19PM -31.1080 -55.6260 36° Northeast 490 564 37,000  Level FlightAware
03:21PM -31.7530 -56.1750 216° Southwest 494 568 37,000  Level FlightAware
03:22PM -30.6580 -55.1400 39° Northeast 493 567 37,000  Level FlightAware
03:22PM -30.6270 -55.1010 47° Northeast 494 568 37,000  Level FlightAware
03:23PM -30.5200 -54.9720 46° Northeast 493 567 37,000  Level FlightAware
03:24PM -30.4400 -54.8740 47° Northeast 493 567 37,000  Level FlightAware
03:25PM -30.3910 -54.8150 46° Northeast 493 567 37,000  Level FlightAware
03:25PM -30.3360 -54.7480 46° Northeast 491 565 37,000  Level FlightAware
03:26PM -30.2780 -54.6780 46° Northeast 490 564 37,000  Level FlightAware
03:27PM -30.2340 -54.6250 46° Northeast 490 564 37,000  Level FlightAware
03:27PM -30.1730 -54.5520 46° Northeast 490 564 37,000  Level FlightAware
03:28PM -30.1170 -54.4850 46° Northeast 490 564 37,000  Level FlightAware
03:28PM -30.0530 -54.4080 46° Northeast 491 565 37,000  Level FlightAware
03:29PM -30.0060 -54.3520 46° Northeast 492 566 37,000  Level FlightAware
03:29PM -29.9520 -54.2870 46° Northeast 491 565 37,000  Level FlightAware
03:30PM -29.8990 -54.2240 46° Northeast 490 564 37,000  Level FlightAware
03:31PM -29.8440 -54.1590 46° Northeast 491 565 37,000  Level FlightAware
03:31PM -29.7850 -54.0880 46° Northeast 491 565 37,000  Level FlightAware
03:32PM -29.7300 -54.0230 46° Northeast 492 566 37,000  Level FlightAware
03:32PM -29.6680 -53.9490 46° Northeast 492 566 37,000  Level FlightAware
03:33PM -29.6110 -53.8820 46° Northeast 492 566 37,000  Level FlightAware
03:33PM -29.5650 -53.8280 46° Northeast 492 566 37,000  Level FlightAware
03:34PM -29.5090 -53.7620 46° Northeast 492 566 37,000  Level FlightAware
03:35PM -29.4470 -53.6890 46° Northeast 492 566 37,000  Level FlightAware
03:35PM -29.3900 -53.6220 46° Northeast 492 566 37,000  Level FlightAware
03:36PM -29.3440 -53.5690 45° Northeast 492 566 37,000  Level FlightAware
03:36PM -29.2860 -53.5000 46° Northeast 492 566 37,000  Level FlightAware
03:37PM -29.2300 -53.4340 46° Northeast 492 566 37,000  Level FlightAware
03:38PM -29.1760 -53.3710 46° Northeast 492 566 37,000  Level FlightAware
03:38PM -29.1190 -53.3050 45° Northeast 492 566 37,000  Level FlightAware
03:39PM -29.0560 -53.2320 45° Northeast 492 566 37,000  Level FlightAware
03:39PM -29.0050 -53.1730 45° Northeast 492 566 37,000  Level FlightAware
03:40PM -28.9540 -53.1140 45° Northeast 492 566 37,000  Level FlightAware
03:40PM -28.8950 -53.0450 46° Northeast 493 567 37,000  Level FlightAware
03:41PM -28.8370 -52.9780 45° Northeast 492 566 37,000  Level FlightAware
03:41PM -28.7970 -52.9320 45° Northeast 492 566 37,000  Level FlightAware
03:42PM -28.7210 -52.8450 45° Northeast 490 564 37,000  Level FlightAware
03:43PM -28.6640 -52.7790 45° Northeast 491 565 37,000  Level FlightAware
03:43PM -28.6340 -52.7440 46° Northeast 491 565 37,000  Level FlightAware
03:44PM -28.5660 -52.6670 45° Northeast 491 565 37,000  Level FlightAware
03:45PM -28.5110 -52.6030 46° Northeast 492 566 37,000  Level FlightAware
03:45PM -28.4490 -52.5320 45° Northeast 492 566 37,000  Level FlightAware
03:46PM -28.4030 -52.4800 45° Northeast 492 566 37,000  Level FlightAware
03:46PM -28.3450 -52.4140 45° Northeast 493 567 37,000  Level FlightAware
03:47PM -28.2810 -52.3410 45° Northeast 493 567 37,000  Level FlightAware
03:47PM -28.2370 -52.2910 45° Northeast 494 568 37,000  Level FlightAware
03:48PM -28.1700 -52.2160 45° Northeast 494 568 37,000  Level FlightAware
03:49PM -28.1150 -52.1540 45° Northeast 494 568 37,000  Level FlightAware
03:49PM -28.0550 -52.0860 45° Northeast 495 570 37,000  Level FlightAware
03:50PM -27.9970 -52.0200 45° Northeast 496 571 37,000  Level FlightAware
03:50PM -27.9480 -51.9650 45° Northeast 497 572 37,000  Level FlightAware
03:51PM -27.8890 -51.8830 51° Northeast 505 581 37,000  Level FlightAware
03:52PM -27.8420 -51.7960 59° Northeast 507 583 37,000  Level FlightAware
03:52PM -27.7970 -51.7160 58° Northeast 506 582 37,000  Level FlightAware
03:53PM -27.7460 -51.6240 58° Northeast 505 581 37,000  Level FlightAware
03:53PM -27.7180 -51.5720 59° Northeast 505 581 37,000  Level FlightAware
03:54PM -27.6590 -51.4660 58° Northeast 504 580 37,000  Level FlightAware
03:55PM -27.6110 -51.3780 58° Northeast 504 580 37,000  Level FlightAware
03:55PM -27.5750 -51.3140 58° Northeast 504 580 37,000  Level FlightAware
03:56PM -27.5070 -51.1920 58° Northeast 503 579 37,000  Level FlightAware
03:57PM -27.4680 -51.1230 58° Northeast 505 581 37,000  Level FlightAware
03:57PM -27.4170 -51.0310 58° Northeast 507 583 37,000  Level FlightAware
03:58PM -27.3710 -50.9490 58° Northeast 509 586 37,000  Level FlightAware
03:58PM -27.3320 -50.8790 58° Northeast 509 586 37,000  Level FlightAware
03:59PM -27.2830 -50.7920 58° Northeast 510 587 37,000  Level FlightAware
03:59PM -27.2560 -50.7440 58° Northeast 510 587 37,000  Level FlightAware
04:01PM -27.1790 -50.6070 58° Northeast 510 587 37,000  Level FlightAware
04:01PM -27.1150 -50.4950 57° Northeast 511 588 37,000  Level FlightAware
04:02PM -27.0670 -50.4090 58° Northeast 511 588 37,000  Level FlightAware
04:03PM -27.0210 -50.3300 57° Northeast 510 587 37,000  Level FlightAware
04:04PM -26.9350 -50.1790 57° Northeast 510 587 37,000  Level FlightAware
04:04PM -26.8850 -50.0910 58° Northeast 510 587 37,000  Level FlightAware
04:05PM -26.8410 -50.0130 58° Northeast 510 587 37,000  Level FlightAware
04:06PM -26.7870 -49.9200 57° Northeast 510 587 37,000  Level FlightAware
04:06PM -26.7270 -49.8160 57° Northeast 509 586 37,000  Level FlightAware
04:07PM -26.6670 -49.7120 57° Northeast 508 585 37,000  Level FlightAware
04:08PM -26.6060 -49.6050 57° Northeast 508 585 37,000  Level FlightAware
04:09PM -26.5630 -49.5320 57° Northeast 507 583 37,000  Level FlightAware
04:09PM -26.5220 -49.4610 57° Northeast 506 582 37,000  Level FlightAware
04:10PM -26.4760 -49.3820 57° Northeast 507 583 37,000  Level FlightAware
04:10PM -26.4340 -49.3100 57° Northeast 506 582 37,000  Level FlightAware
04:11PM -26.3860 -49.2280 57° Northeast 505 581 37,000  Level FlightAware
04:11PM -26.3420 -49.1520 57° Northeast 505 581 37,000  Level FlightAware
04:12PM -26.2980 -49.0760 57° Northeast 506 582 37,000  Level FlightAware
04:13PM -26.2460 -48.9870 57° Northeast 508 585 37,000  Level FlightAware
04:13PM -26.2040 -48.9170 56° Northeast 507 583 37,000  Level FlightAware
04:14PM -26.1630 -48.8460 57° Northeast 507 583 37,000  Level FlightAware
04:14PM -26.1180 -48.7690 57° Northeast 507 583 37,000  Level FlightAware
04:15PM -26.0660 -48.6820 56° Northeast 507 583 37,000  Level FlightAware
04:16PM -26.0280 -48.6170 57° Northeast 507 583 37,000  Level FlightAware
04:16PM -25.9830 -48.5410 57° Northeast 507 583 37,000  Level FlightAware
04:17PM -25.9380 -48.4650 57° Northeast 507 583 37,000  Level FlightAware
04:17PM -25.8870 -48.3790 57° Northeast 507 583 37,000  Level FlightAware
04:18PM -25.8420 -48.3040 56° Northeast 507 583 37,000  Level FlightAware
04:18PM -25.8020 -48.2370 56° Northeast 507 583 37,000  Level FlightAware
04:19PM -25.7580 -48.1620 57° Northeast 508 585 37,000  Level FlightAware
04:20PM -25.7060 -48.0760 56° Northeast 508 585 37,000  Level FlightAware
04:20PM -25.6620 -48.0020 57° Northeast 508 585 37,000  Level FlightAware
04:21PM -25.6220 -47.9350 57° Northeast 508 585 37,000  Level FlightAware
04:21PM -25.5760 -47.8590 56° Northeast 509 586 37,000  Level FlightAware
04:22PM -25.5300 -47.7830 56° Northeast 510 587 37,000  Level FlightAware
04:23PM -25.4850 -47.7080 56° Northeast 509 586 37,000  Level FlightAware
04:23PM -25.4390 -47.6320 56° Northeast 509 586 37,000  Level FlightAware
04:24PM -25.3880 -47.5470 56° Northeast 509 586 37,000  Level FlightAware
04:24PM -25.3410 -47.4700 56° Northeast 510 587 37,000  Level FlightAware
04:25PM -25.3030 -47.4080 56° Northeast 510 587 37,000  Level FlightAware
04:25PM -25.2560 -47.3300 56° Northeast 510 587 37,000  Level FlightAware
04:26PM -25.2020 -47.2460 55° Northeast 510 587 37,000  Level FlightAware
04:26PM -25.1820 -47.2240 45° Northeast 510 587 37,000  Level FlightAware
04:27PM -25.1130 -47.1530 43° Northeast 507 583 37,000 -780 Level FlightAware
04:28PM -25.0410 -47.0780 43° Northeast 514 592 36,000 -1,560 Descending FlightAware
04:28PM -24.9970 -47.0330 43° Northeast 510 587 35,200 -1,920 Descending FlightAware
04:29PM -24.9310 -46.9640 43° Northeast 504 580 34,000 -2,040 Descending FlightAware
04:29PM -24.8680 -46.9000 43° Northeast 496 571 32,800 -1,920 Descending FlightAware
04:30PM -24.8090 -46.8380 44° Northeast 486 559 31,700 -1,860 Descending FlightAware
04:31PM -24.7460 -46.7740 43° Northeast 478 550 30,600 -1,800 Descending FlightAware
04:31PM -24.6810 -46.7080 43° Northeast 466 536 29,400 -1,800 Descending FlightAware
04:32PM -24.6260 -46.6510 43° Northeast 451 519 28,400 -1,680 Descending FlightAware
04:32PM -24.5670 -46.6060 35° Northeast 437 503 27,500 -1,680 Descending FlightAware
04:33PM -24.5030 -46.5680 28° Northeast 426 490 26,500 -1,560 Descending FlightAware
04:34PM -24.4430 -46.5330 28° Northeast 418 481 25,700 -1,440 Descending FlightAware
04:34PM -24.4160 -46.5190 25° Northeast 415 478 25,300 -1,200 Descending FlightAware
04:34PM -24.3870 -46.5110 14° North 411 473 25,100 -960 Descending FlightAware
04:35PM -24.3190 -46.4990 North 408 470 24,500 -1,200 Descending FlightAware
04:35PM -24.2540 -46.4870 10° North 410 472 23,700 -1,680 Descending FlightAware
04:36PM -24.1880 -46.4750 North 404 465 22,600 -1,860 Descending FlightAware
04:37PM -24.1150 -46.4620 North 391 450 21,400 -1,800 Descending FlightAware
04:37PM -24.0510 -46.4500 10° North 393 452 20,400 -1,800 Descending FlightAware
04:38PM -23.9890 -46.4390 North 388 447 19,300 -1,800 Descending FlightAware
04:38PM -23.9270 -46.4270 10° North 374 430 18,300 -1,740 Descending FlightAware
04:39PM -23.8670 -46.4160 10° North 377 434 17,300 -1,740 Descending FlightAware
04:40PM -23.8070 -46.4050 10° North 363 418 16,300 -1,740 Descending FlightAware
04:40PM -23.7490 -46.3950 North 357 411 15,300 -1,740 Descending FlightAware
04:41PM -23.6900 -46.3840 10° North 359 413 14,300 -1,680 Descending FlightAware
04:41PM -23.6420 -46.3900 353° North 343 395 13,500 -1,680 Descending FlightAware
04:42PM -23.5800 -46.4130 341° North 338 389 12,400 -1,560 Descending FlightAware
04:42PM -23.5280 -46.4320 341° North 326 375 11,600 -1,200 Descending FlightAware
04:43PM -23.4780 -46.4500 342° North 321 369 11,000 -840 Descending FlightAware
04:44PM -23.4220 -46.4710 341° North 285 328 10,600 -540 Descending FlightAware
04:44PM -23.3870 -46.4830 343° North 269 310 10,400 -840 Descending FlightAware
04:45PM -23.3510 -46.4970 340° North 272 313 9,800 -1,200 Descending FlightAware
04:45PM -23.3470 -46.5000 325° Northwest 267 307 9,700 -1,620 Descending FlightAware
04:45PM -23.3370 -46.5120 312° West 266 306 9,400 -1,620 Descending FlightAware
04:45PM -23.3340 -46.5170 303° West 266 306 9,300 -1,800 Descending FlightAware
04:45PM -23.3320 -46.5240 287° West 269 310 9,100 -2,400 Descending FlightAware
04:45PM -23.3320 -46.5310 270° West 268 308 8,900 -2,040 Descending FlightAware
04:46PM -23.3410 -46.5630 253° West 263 303 8,100 -1,980 Descending FlightAware
04:46PM -23.3490 -46.5820 245° Southwest 261 300 7,600 -1,680 Descending FlightAware
04:46PM -23.3530 -46.5930 248° West 260 299 7,400 -1,560 Descending FlightAware
04:46PM -23.3650 -46.6230 246° West 259 298 6,700 -1,620 Descending FlightAware
04:47PM -23.3740 -46.6480 249° West 254 292 6,200 -1,080 Descending FlightAware
04:47PM -23.3820 -46.6700 248° West 244 281 6,000 -660 Descending FlightAware
04:47PM -23.3880 -46.6810 239° Southwest 238 274 5,900 -900 Descending FlightAware
04:47PM -23.3920 -46.6860 229° Southwest 241 277 5,800 -600 Descending FlightAware
04:47PM -23.3960 -46.6890 215° Southwest 230 265 5,800 -360 Level FlightAware
04:48PM -23.4060 -46.6930 200° South 230 265 5,700 -600 Descending FlightAware
04:48PM -23.4170 -46.6920 175° South 224 258 5,600 -660 Descending FlightAware
04:48PM -23.4370 -46.6910 177° South 211 243 5,400 -480 Descending FlightAware
04:48PM -23.4410 -46.6890 155° Southeast 206 237 5,400  Level FlightAware
04:48PM -23.4460 -46.6870 160° South 191 220 5,400 -420 Level FlightAware
04:48PM -23.4520 -46.6800 133° Southeast 190 219 5,300 -600 Descending FlightAware
04:49PM -23.4560 -46.6720 119° Southeast 182 209 5,200 -600 Descending FlightAware
04:49PM -23.4630 -46.6550 114° Southeast 171 197 5,000 -720 Descending FlightAware
04:49PM -23.4710 -46.6360 115° Southeast 166 191 4,700 -600 Descending FlightAware
04:50PM -23.4740 -46.6250 107° East 157 181 4,600 -540 Descending FlightAware
04:50PM -23.4720 -46.6080 83° East 144 166 4,400 -660 Descending FlightAware
04:50PM -23.4680 -46.5960 70° East 144 166 4,200 -960 Descending FlightAware
04:50PM -23.4650 -46.5860 72° East 143 165 3,900 -960 Descending FlightAware
04:51PM -23.4620 -46.5740 75° East 138 159 3,700 -780 Descending FlightAware
04:51PM -23.4600 -46.5640 78° East 138 159 3,500 -780 Descending FlightAware
04:51PM -23.4550 -46.5460 73° East 141 162 3,200 -600 Descending FlightAware
04:52PM -23.4520 -46.5370 70° East 140 161 3,100 -660 Descending FlightAware
04:52PM -23.4480 -46.5220 74° East 141 162 2,800 -840 Descending FlightAware
04:52PM -23.4470 -46.5170 78° East 141 162 2,700 -420 Descending FlightAware
04:53PM -23.4450 -46.5080 76° East 139 160 2,600 -540 Descending FlightAware
04:53PM -23.4400 -46.4920 71° East 140 161 2,300 -360 Descending FlightAware
04:53PM -23.4360 -46.4760 75° East 140 161 2,300  Level FlightAware
04:56PM -23.4321 -46.4695 57° Northeast  Level Estimated
04:57PM -23.4321 -46.4695 350° North  Level Estimated
04:58PM -23.4321 -46.4695 350° North  Level Estimated
04:59PM -23.4321 -46.4695 350° North  Level Estimated
05:00PM -23.4321 -46.4695 350° North  Level Estimated
05:01PM -23.4321 -46.4695 350° North  Level Estimated
05:02PM -23.4321 -46.4695 350° North  Level Estimated
05:03PM -23.4321 -46.4695 350° North  Level Estimated
05:04PM -23.4321 -46.4695 350° North  Level Estimated
05:05PM -23.4321 -46.4695 350° North  Level Estimated
05:06PM -23.4321 -46.4695 350° North  Level Estimated
05:07PM -23.4321 -46.4695 350° North  Level Estimated
05:08PM -23.4321 -46.4695 350° North  Level Estimated
05:09PM -23.4321 -46.4695 350° North  Level Estimated
05:10PM -23.4321 -46.4695 350° North  Level Estimated
05:11PM -23.4321 -46.4695 350° North  Level Estimated
05:12PM -23.4321 -46.4695 350° North  Level Estimated
05:13PM -23.4321 -46.4695 350° North  Level Estimated
05:14PM -23.4321 -46.4695 350° North  Level Estimated
05:15PM -23.4321 -46.4695 350° North  Level Estimated
05:16PM -23.4321 -46.4695 350° North  Level Estimated
05:17PM -23.4321 -46.4695 350° North  Level Estimated
05:18PM -23.4321 -46.4695 350° North  Level Estimated
05:19PM -23.4321 -46.4695 350° North  Level Estimated
05:20PM -23.4321 -46.4695 350° North  Level Estimated
05:21PM -23.4321 -46.4695 350° North  Level Estimated
05:22PM -23.4321 -46.4695 350° North  Level Estimated
05:23PM -23.4321 -46.4695 350° North  Level Estimated
05:24PM -23.4321 -46.4695 350° North  Level Estimated
05:25PM -23.4321 -46.4695 350° North  Level Estimated
05:26PM -23.4321 -46.4695 350° North  Level Estimated
05:27PM -23.4321 -46.4695 350° North  Level Estimated
05:28PM -23.4321 -46.4695 350° North  Level Estimated
05:29PM -23.4321 -46.4695 350° North  Level Estimated
05:30PM -23.4321 -46.4695 350° North  Level Estimated
05:31PM -23.4321 -46.4695 350° North  Level Estimated
05:32PM -23.4321 -46.4695 350° North  Level Estimated
05:33PM -23.4321 -46.4695 350° North  Level Estimated